Pettus, Arkansas
Current Conditions -  °F | °C
As of 6:58 AM on Friday 28 Nov 2014 (Local Time) from KLRF Reporting Station
Clear Clear  
Wind Chill: -4°   Ceiling: Unl
Heat Index: -4°   Visibility: 10mi
Dew Point: -5°   Wind: 0mph
Humidity: 89%   Direction: NA
Pressure: 30.37"   Gusts: NA
Location:  34.7557°N, 91.9476°W
Report Text: KLRF 281258Z AUTO 00000KT 10SM CLR M04/M05 A3037 RMK AO2 SLP291 T10381053 $
Loading
Personal Weather Stations






























Interactive Weather Map New forecast layout! Learn more

10-Day Weather Forecast

Advertisements
Track Severe Weather on mobile